sensor_id;sensor_type;location;lat;lon;timestamp;temperature;humidity
71039;SHT30;58692;43.212;27.908;2024-02-14T00:01:19;9.23;83.25
71039;SHT30;58692;43.212;27.908;2024-02-14T00:03:45;9.24;83.34
71039;SHT30;58692;43.212;27.908;2024-02-14T00:06:11;9.10;83.76
71039;SHT30;58692;43.212;27.908;2024-02-14T00:08:38;9.15;83.63
71039;SHT30;58692;43.212;27.908;2024-02-14T00:11:04;9.02;83.91
71039;SHT30;58692;43.212;27.908;2024-02-14T00:13:29;9.16;83.74
71039;SHT30;58692;43.212;27.908;2024-02-14T00:15:55;9.20;83.63
71039;SHT30;58692;43.212;27.908;2024-02-14T00:18:22;9.27;83.53
71039;SHT30;58692;43.212;27.908;2024-02-14T00:20:48;9.23;83.77
71039;SHT30;58692;43.212;27.908;2024-02-14T00:23:14;9.24;83.62
71039;SHT30;58692;43.212;27.908;2024-02-14T00:25:39;9.30;83.52
71039;SHT30;58692;43.212;27.908;2024-02-14T00:28:05;9.26;84.08
71039;SHT30;58692;43.212;27.908;2024-02-14T00:30:31;9.23;84.33
71039;SHT30;58692;43.212;27.908;2024-02-14T00:32:57;9.26;84.39
71039;SHT30;58692;43.212;27.908;2024-02-14T00:35:23;9.29;84.43
71039;SHT30;58692;43.212;27.908;2024-02-14T00:37:49;9.27;84.97
71039;SHT30;58692;43.212;27.908;2024-02-14T00:40:14;9.26;85.13
71039;SHT30;58692;43.212;27.908;2024-02-14T00:42:40;9.24;85.27
71039;SHT30;58692;43.212;27.908;2024-02-14T00:45:06;9.27;85.19
71039;SHT30;58692;43.212;27.908;2024-02-14T00:47:34;9.20;85.37
71039;SHT30;58692;43.212;27.908;2024-02-14T00:50:00;9.12;85.77
71039;SHT30;58692;43.212;27.908;2024-02-14T00:52:26;9.17;85.72
71039;SHT30;58692;43.212;27.908;2024-02-14T00:54:52;9.15;86.02
71039;SHT30;58692;43.212;27.908;2024-02-14T00:57:17;9.06;86.18
71039;SHT30;58692;43.212;27.908;2024-02-14T00:59:44;9.02;86.19
71039;SHT30;58692;43.212;27.908;2024-02-14T01:02:10;8.96;86.47
71039;SHT30;58692;43.212;27.908;2024-02-14T01:04:36;9.00;86.48
71039;SHT30;58692;43.212;27.908;2024-02-14T01:07:03;8.92;86.40
71039;SHT30;58692;43.212;27.908;2024-02-14T01:09:28;8.93;86.61
71039;SHT30;58692;43.212;27.908;2024-02-14T01:11:54;8.97;86.48
71039;SHT30;58692;43.212;27.908;2024-02-14T01:14:20;9.06;86.21
71039;SHT30;58692;43.212;27.908;2024-02-14T01:16:47;9.03;86.05
71039;SHT30;58692;43.212;27.908;2024-02-14T01:19:13;9.05;85.94
71039;SHT30;58692;43.212;27.908;2024-02-14T01:21:39;8.95;86.07
71039;SHT30;58692;43.212;27.908;2024-02-14T01:24:05;9.00;85.89
71039;SHT30;58692;43.212;27.908;2024-02-14T01:26:31;9.07;85.83
71039;SHT30;58692;43.212;27.908;2024-02-14T01:28:57;9.02;86.02
71039;SHT30;58692;43.212;27.908;2024-02-14T01:31:23;9.12;85.76
71039;SHT30;58692;43.212;27.908;2024-02-14T01:33:48;9.22;85.30
71039;SHT30;58692;43.212;27.908;2024-02-14T01:36:14;9.17;85.46
71039;SHT30;58692;43.212;27.908;2024-02-14T01:38:39;9.15;85.37
71039;SHT30;58692;43.212;27.908;2024-02-14T01:41:05;9.12;85.42
71039;SHT30;58692;43.212;27.908;2024-02-14T01:43:31;9.22;85.17
71039;SHT30;58692;43.212;27.908;2024-02-14T01:46:04;9.20;85.33
71039;SHT30;58692;43.212;27.908;2024-02-14T01:48:30;9.16;85.35
71039;SHT30;58692;43.212;27.908;2024-02-14T01:50:57;8.96;86.32
71039;SHT30;58692;43.212;27.908;2024-02-14T01:53:23;9.05;86.14
71039;SHT30;58692;43.212;27.908;2024-02-14T01:55:51;9.07;86.16
71039;SHT30;58692;43.212;27.908;2024-02-14T01:58:17;9.13;86.05
71039;SHT30;58692;43.212;27.908;2024-02-14T02:00:43;9.22;85.69
71039;SHT30;58692;43.212;27.908;2024-02-14T02:03:09;9.03;85.59
71039;SHT30;58692;43.212;27.908;2024-02-14T02:05:36;8.97;85.80
71039;SHT30;58692;43.212;27.908;2024-02-14T02:08:01;8.99;85.46
71039;SHT30;58692;43.212;27.908;2024-02-14T02:10:27;8.99;85.10
71039;SHT30;58692;43.212;27.908;2024-02-14T02:12:58;8.95;84.88
71039;SHT30;58692;43.212;27.908;2024-02-14T02:15:25;8.93;85.28
71039;SHT30;58692;43.212;27.908;2024-02-14T02:17:50;8.99;85.37
71039;SHT30;58692;43.212;27.908;2024-02-14T02:20:18;9.02;85.67
71039;SHT30;58692;43.212;27.908;2024-02-14T02:22:46;9.06;85.61
71039;SHT30;58692;43.212;27.908;2024-02-14T02:25:13;8.92;86.21
71039;SHT30;58692;43.212;27.908;2024-02-14T02:27:39;8.92;86.03
71039;SHT30;58692;43.212;27.908;2024-02-14T02:30:07;8.99;85.96
71039;SHT30;58692;43.212;27.908;2024-02-14T02:32:35;9.05;85.32
71039;SHT30;58692;43.212;27.908;2024-02-14T02:35:02;9.06;84.25
71039;SHT30;58692;43.212;27.908;2024-02-14T02:37:28;9.07;83.94
71039;SHT30;58692;43.212;27.908;2024-02-14T02:39:56;9.12;83.63
71039;SHT30;58692;43.212;27.908;2024-02-14T02:42:22;9.10;83.30
71039;SHT30;58692;43.212;27.908;2024-02-14T02:44:50;9.00;83.38
71039;SHT30;58692;43.212;27.908;2024-02-14T02:47:16;8.93;83.45
71039;SHT30;58692;43.212;27.908;2024-02-14T02:49:44;8.93;83.06
71039;SHT30;58692;43.212;27.908;2024-02-14T02:52:11;8.86;83.10
71039;SHT30;58692;43.212;27.908;2024-02-14T02:54:37;8.88;83.11
71039;SHT30;58692;43.212;27.908;2024-02-14T02:57:07;8.90;83.08
71039;SHT30;58692;43.212;27.908;2024-02-14T02:59:34;8.83;82.83
71039;SHT30;58692;43.212;27.908;2024-02-14T03:02:00;8.80;82.88
71039;SHT30;58692;43.212;27.908;2024-02-14T03:04:26;8.69;83.04
71039;SHT30;58692;43.212;27.908;2024-02-14T03:06:51;8.71;82.99
71039;SHT30;58692;43.212;27.908;2024-02-14T03:09:17;8.66;82.88
71039;SHT30;58692;43.212;27.908;2024-02-14T03:11:47;8.58;82.74
71039;SHT30;58692;43.212;27.908;2024-02-14T03:14:13;8.61;82.78
71039;SHT30;58692;43.212;27.908;2024-02-14T03:16:39;8.58;82.78
71039;SHT30;58692;43.212;27.908;2024-02-14T03:19:05;8.65;82.54
71039;SHT30;58692;43.212;27.908;2024-02-14T03:21:31;8.62;82.47
71039;SHT30;58692;43.212;27.908;2024-02-14T03:24:01;8.61;82.59
71039;SHT30;58692;43.212;27.908;2024-02-14T03:26:28;8.64;82.24
71039;SHT30;58692;43.212;27.908;2024-02-14T03:28:54;8.55;82.32
71039;SHT30;58692;43.212;27.908;2024-02-14T03:31:20;8.56;81.90
71039;SHT30;58692;43.212;27.908;2024-02-14T03:33:45;8.51;82.07
71039;SHT30;58692;43.212;27.908;2024-02-14T03:36:11;8.54;81.88
71039;SHT30;58692;43.212;27.908;2024-02-14T03:38:37;8.34;82.53
71039;SHT30;58692;43.212;27.908;2024-02-14T03:41:05;8.25;82.34
71039;SHT30;58692;43.212;27.908;2024-02-14T03:43:30;8.25;82.62
71039;SHT30;58692;43.212;27.908;2024-02-14T03:45:57;8.35;82.43
71039;SHT30;58692;43.212;27.908;2024-02-14T03:48:23;8.37;82.19
71039;SHT30;58692;43.212;27.908;2024-02-14T03:50:48;8.40;82.07
71039;SHT30;58692;43.212;27.908;2024-02-14T03:53:14;8.37;82.08
71039;SHT30;58692;43.212;27.908;2024-02-14T03:55:40;8.42;82.09
71039;SHT30;58692;43.212;27.908;2024-02-14T03:58:06;8.30;82.22
71039;SHT30;58692;43.212;27.908;2024-02-14T04:00:34;8.17;82.67
71039;SHT30;58692;43.212;27.908;2024-02-14T04:03:01;8.10;83.02
71039;SHT30;58692;43.212;27.908;2024-02-14T04:05:28;8.15;83.12
71039;SHT30;58692;43.212;27.908;2024-02-14T04:07:54;8.10;83.13
71039;SHT30;58692;43.212;27.908;2024-02-14T04:10:21;8.21;82.93
71039;SHT30;58692;43.212;27.908;2024-02-14T04:12:47;8.31;82.54
71039;SHT30;58692;43.212;27.908;2024-02-14T04:15:13;8.40;82.15
71039;SHT30;58692;43.212;27.908;2024-02-14T04:17:40;8.21;82.22
71039;SHT30;58692;43.212;27.908;2024-02-14T04:20:06;8.15;82.62
71039;SHT30;58692;43.212;27.908;2024-02-14T04:22:32;8.13;82.66
71039;SHT30;58692;43.212;27.908;2024-02-14T04:24:57;8.17;82.73
71039;SHT30;58692;43.212;27.908;2024-02-14T04:27:23;8.25;82.66
71039;SHT30;58692;43.212;27.908;2024-02-14T04:29:48;8.33;82.38
71039;SHT30;58692;43.212;27.908;2024-02-14T04:32:14;8.46;81.99
71039;SHT30;58692;43.212;27.908;2024-02-14T04:34:40;8.51;81.80
71039;SHT30;58692;43.212;27.908;2024-02-14T04:37:07;8.48;81.60
71039;SHT30;58692;43.212;27.908;2024-02-14T04:39:36;8.28;82.29
71039;SHT30;58692;43.212;27.908;2024-02-14T04:42:01;8.33;82.35
71039;SHT30;58692;43.212;27.908;2024-02-14T04:44:29;8.52;81.81
71039;SHT30;58692;43.212;27.908;2024-02-14T04:46:55;8.35;81.62
71039;SHT30;58692;43.212;27.908;2024-02-14T04:49:21;8.31;81.94
71039;SHT30;58692;43.212;27.908;2024-02-14T04:51:46;8.35;81.93
71039;SHT30;58692;43.212;27.908;2024-02-14T04:54:12;8.18;82.36
71039;SHT30;58692;43.212;27.908;2024-02-14T04:56:39;8.20;82.23
71039;SHT30;58692;43.212;27.908;2024-02-14T04:59:04;8.07;82.62
71039;SHT30;58692;43.212;27.908;2024-02-14T05:01:30;7.90;82.96
71039;SHT30;58692;43.212;27.908;2024-02-14T05:03:56;7.83;83.16
71039;SHT30;58692;43.212;27.908;2024-02-14T05:06:22;7.95;82.96
71039;SHT30;58692;43.212;27.908;2024-02-14T05:08:48;7.93;82.94
71039;SHT30;58692;43.212;27.908;2024-02-14T05:11:13;8.00;82.81
71039;SHT30;58692;43.212;27.908;2024-02-14T05:13:39;8.01;82.76
71039;SHT30;58692;43.212;27.908;2024-02-14T05:16:07;8.07;82.24
71039;SHT30;58692;43.212;27.908;2024-02-14T05:18:34;8.17;82.43
71039;SHT30;58692;43.212;27.908;2024-02-14T05:20:59;8.21;81.94
71039;SHT30;58692;43.212;27.908;2024-02-14T05:23:25;8.21;82.07
71039;SHT30;58692;43.212;27.908;2024-02-14T05:25:51;8.18;82.47
71039;SHT30;58692;43.212;27.908;2024-02-14T05:28:16;8.18;82.36
71039;SHT30;58692;43.212;27.908;2024-02-14T05:30:44;8.20;82.28
71039;SHT30;58692;43.212;27.908;2024-02-14T05:33:10;8.14;82.18
71039;SHT30;58692;43.212;27.908;2024-02-14T05:35:36;8.21;81.75
71039;SHT30;58692;43.212;27.908;2024-02-14T05:38:02;8.30;81.75
71039;SHT30;58692;43.212;27.908;2024-02-14T05:40:29;8.40;81.48
71039;SHT30;58692;43.212;27.908;2024-02-14T05:42:55;8.49;81.08
71039;SHT30;58692;43.212;27.908;2024-02-14T05:45:21;8.58;80.78
71039;SHT30;58692;43.212;27.908;2024-02-14T05:47:47;8.56;81.04
71039;SHT30;58692;43.212;27.908;2024-02-14T05:50:12;8.51;81.06
71039;SHT30;58692;43.212;27.908;2024-02-14T05:52:38;8.56;80.92
71039;SHT30;58692;43.212;27.908;2024-02-14T05:55:05;8.65;80.79
71039;SHT30;58692;43.212;27.908;2024-02-14T05:57:31;8.72;80.52
71039;SHT30;58692;43.212;27.908;2024-02-14T05:59:56;8.76;80.46
71039;SHT30;58692;43.212;27.908;2024-02-14T06:02:22;8.90;80.20
71039;SHT30;58692;43.212;27.908;2024-02-14T06:04:48;8.76;80.13
71039;SHT30;58692;43.212;27.908;2024-02-14T06:07:13;8.61;80.22
71039;SHT30;58692;43.212;27.908;2024-02-14T06:09:39;8.62;80.54
71039;SHT30;58692;43.212;27.908;2024-02-14T06:12:06;8.75;80.50
71039;SHT30;58692;43.212;27.908;2024-02-14T06:14:31;8.76;80.23
71039;SHT30;58692;43.212;27.908;2024-02-14T06:16:59;8.80;80.09
71039;SHT30;58692;43.212;27.908;2024-02-14T06:19:26;8.86;79.94
71039;SHT30;58692;43.212;27.908;2024-02-14T06:21:52;8.86;80.03
71039;SHT30;58692;43.212;27.908;2024-02-14T06:24:17;8.90;79.91
71039;SHT30;58692;43.212;27.908;2024-02-14T06:26:44;9.02;79.64
71039;SHT30;58692;43.212;27.908;2024-02-14T06:29:10;8.96;79.78
71039;SHT30;58692;43.212;27.908;2024-02-14T06:31:36;9.05;79.57
71039;SHT30;58692;43.212;27.908;2024-02-14T06:34:02;8.93;79.68
71039;SHT30;58692;43.212;27.908;2024-02-14T06:36:28;8.88;80.03
71039;SHT30;58692;43.212;27.908;2024-02-14T06:38:54;8.96;80.23
71039;SHT30;58692;43.212;27.908;2024-02-14T06:41:20;8.86;79.80
71039;SHT30;58692;43.212;27.908;2024-02-14T06:43:46;8.90;79.85
71039;SHT30;58692;43.212;27.908;2024-02-14T06:46:15;8.99;79.15
71039;SHT30;58692;43.212;27.908;2024-02-14T06:48:40;8.86;79.49
71039;SHT30;58692;43.212;27.908;2024-02-14T06:51:07;9.03;79.13
71039;SHT30;58692;43.212;27.908;2024-02-14T06:53:34;9.10;78.72
71039;SHT30;58692;43.212;27.908;2024-02-14T06:56:01;9.27;78.67
71039;SHT30;58692;43.212;27.908;2024-02-14T06:58:26;9.30;78.34
71039;SHT30;58692;43.212;27.908;2024-02-14T07:00:52;9.40;78.32
71039;SHT30;58692;43.212;27.908;2024-02-14T07:03:17;9.41;77.71
71039;SHT30;58692;43.212;27.908;2024-02-14T07:05:43;9.33;78.59
71039;SHT30;58692;43.212;27.908;2024-02-14T07:08:26;9.50;78.40
71039;SHT30;58692;43.212;27.908;2024-02-14T07:10:54;9.54;77.76
71039;SHT30;58692;43.212;27.908;2024-02-14T07:13:24;9.51;77.78
71039;SHT30;58692;43.212;27.908;2024-02-14T07:15:49;9.55;77.70
71039;SHT30;58692;43.212;27.908;2024-02-14T07:18:15;9.70;77.53
71039;SHT30;58692;43.212;27.908;2024-02-14T07:20:41;9.61;77.24
71039;SHT30;58692;43.212;27.908;2024-02-14T07:23:07;9.71;77.01
71039;SHT30;58692;43.212;27.908;2024-02-14T07:25:33;9.71;77.47
71039;SHT30;58692;43.212;27.908;2024-02-14T07:27:58;9.81;76.59
71039;SHT30;58692;43.212;27.908;2024-02-14T07:30:24;9.82;77.20
71039;SHT30;58692;43.212;27.908;2024-02-14T07:33:19;9.58;77.12
71039;SHT30;58692;43.212;27.908;2024-02-14T07:35:51;9.52;77.74
71039;SHT30;58692;43.212;27.908;2024-02-14T07:38:22;9.52;77.36
71039;SHT30;58692;43.212;27.908;2024-02-14T07:41:13;9.51;77.18
71039;SHT30;58692;43.212;27.908;2024-02-14T07:43:45;9.37;78.35
71039;SHT30;58692;43.212;27.908;2024-02-14T07:46:24;9.44;77.79
71039;SHT30;58692;43.212;27.908;2024-02-14T07:48:52;9.50;77.73
71039;SHT30;58692;43.212;27.908;2024-02-14T07:51:19;9.20;78.01
71039;SHT30;58692;43.212;27.908;2024-02-14T07:53:45;9.24;78.74
71039;SHT30;58692;43.212;27.908;2024-02-14T07:56:11;9.36;78.40
71039;SHT30;58692;43.212;27.908;2024-02-14T07:58:36;9.31;78.73
71039;SHT30;58692;43.212;27.908;2024-02-14T08:01:04;9.06;79.01
71039;SHT30;58692;43.212;27.908;2024-02-14T08:03:30;9.26;78.84
71039;SHT30;58692;43.212;27.908;2024-02-14T08:05:56;9.26;78.55
71039;SHT30;58692;43.212;27.908;2024-02-14T08:08:21;9.26;78.57
71039;SHT30;58692;43.212;27.908;2024-02-14T08:10:48;9.34;78.14
71039;SHT30;58692;43.212;27.908;2024-02-14T08:13:15;9.41;78.52
71039;SHT30;58692;43.212;27.908;2024-02-14T08:16:04;9.33;77.81
71039;SHT30;58692;43.212;27.908;2024-02-14T08:18:29;9.48;77.34
71039;SHT30;58692;43.212;27.908;2024-02-14T08:20:55;9.58;77.19
71039;SHT30;58692;43.212;27.908;2024-02-14T08:23:21;9.40;77.11
71039;SHT30;58692;43.212;27.908;2024-02-14T08:25:47;9.54;76.65
71039;SHT30;58692;43.212;27.908;2024-02-14T08:28:14;9.60;76.34
71039;SHT30;58692;43.212;27.908;2024-02-14T08:30:40;9.82;75.83
71039;SHT30;58692;43.212;27.908;2024-02-14T08:33:06;9.57;76.29
71039;SHT30;58692;43.212;27.908;2024-02-14T08:35:32;9.51;76.40
71039;SHT30;58692;43.212;27.908;2024-02-14T08:37:59;9.55;76.34
71039;SHT30;58692;43.212;27.908;2024-02-14T08:40:28;9.41;76.53
71039;SHT30;58692;43.212;27.908;2024-02-14T08:42:54;9.51;76.58
71039;SHT30;58692;43.212;27.908;2024-02-14T08:45:20;9.81;75.93
71039;SHT30;58692;43.212;27.908;2024-02-14T08:47:47;9.73;75.52
71039;SHT30;58692;43.212;27.908;2024-02-14T08:50:12;9.82;75.64
71039;SHT30;58692;43.212;27.908;2024-02-14T08:52:39;9.82;75.26
71039;SHT30;58692;43.212;27.908;2024-02-14T08:55:13;9.85;75.66
71039;SHT30;58692;43.212;27.908;2024-02-14T08:57:47;10.02;75.23
71039;SHT30;58692;43.212;27.908;2024-02-14T09:00:13;10.19;74.56
71039;SHT30;58692;43.212;27.908;2024-02-14T09:02:43;10.06;75.15
71039;SHT30;58692;43.212;27.908;2024-02-14T09:05:09;10.19;74.43
71039;SHT30;58692;43.212;27.908;2024-02-14T09:07:35;10.16;74.64
71039;SHT30;58692;43.212;27.908;2024-02-14T09:10:02;10.19;74.01
71039;SHT30;58692;43.212;27.908;2024-02-14T09:12:28;10.26;73.94
71039;SHT30;58692;43.212;27.908;2024-02-14T09:14:53;10.33;73.70
71039;SHT30;58692;43.212;27.908;2024-02-14T09:17:19;10.33;73.24
71039;SHT30;58692;43.212;27.908;2024-02-14T09:19:45;10.28;73.65
71039;SHT30;58692;43.212;27.908;2024-02-14T09:22:10;10.31;73.68
71039;SHT30;58692;43.212;27.908;2024-02-14T09:24:36;10.53;73.64
71039;SHT30;58692;43.212;27.908;2024-02-14T09:27:01;10.72;73.01
71039;SHT30;58692;43.212;27.908;2024-02-14T09:29:28;10.77;72.90
71039;SHT30;58692;43.212;27.908;2024-02-14T09:31:54;10.92;72.42
71039;SHT30;58692;43.212;27.908;2024-02-14T09:34:19;10.84;72.22
71039;SHT30;58692;43.212;27.908;2024-02-14T09:36:48;11.00;71.41
71039;SHT30;58692;43.212;27.908;2024-02-14T09:39:15;11.08;71.21
71039;SHT30;58692;43.212;27.908;2024-02-14T09:41:44;10.92;71.24
71039;SHT30;58692;43.212;27.908;2024-02-14T09:44:09;10.69;71.61
71039;SHT30;58692;43.212;27.908;2024-02-14T09:46:36;10.93;71.15
71039;SHT30;58692;43.212;27.908;2024-02-14T09:49:03;10.97;71.10
71039;SHT30;58692;43.212;27.908;2024-02-14T09:51:29;11.08;71.18
71039;SHT30;58692;43.212;27.908;2024-02-14T09:53:56;11.06;72.01
71039;SHT30;58692;43.212;27.908;2024-02-14T09:56:24;11.04;70.71
71039;SHT30;58692;43.212;27.908;2024-02-14T09:58:51;11.01;71.41
71039;SHT30;58692;43.212;27.908;2024-02-14T10:01:24;10.87;71.77
71039;SHT30;58692;43.212;27.908;2024-02-14T10:03:55;10.92;71.51
71039;SHT30;58692;43.212;27.908;2024-02-14T10:06:21;10.86;71.80
71039;SHT30;58692;43.212;27.908;2024-02-14T10:08:49;10.72;72.25
71039;SHT30;58692;43.212;27.908;2024-02-14T10:11:17;10.66;72.43
71039;SHT30;58692;43.212;27.908;2024-02-14T10:13:44;10.63;72.78
71039;SHT30;58692;43.212;27.908;2024-02-14T10:16:11;10.57;72.79
71039;SHT30;58692;43.212;27.908;2024-02-14T10:18:40;10.32;73.51
71039;SHT30;58692;43.212;27.908;2024-02-14T10:21:08;10.22;73.31
71039;SHT30;58692;43.212;27.908;2024-02-14T10:23:34;10.01;74.07
71039;SHT30;58692;43.212;27.908;2024-02-14T10:25:59;10.19;73.92
71039;SHT30;58692;43.212;27.908;2024-02-14T10:28:25;10.46;73.41
71039;SHT30;58692;43.212;27.908;2024-02-14T10:30:57;10.55;73.09
71039;SHT30;58692;43.212;27.908;2024-02-14T10:33:35;10.53;72.81
71039;SHT30;58692;43.212;27.908;2024-02-14T10:36:01;10.42;73.07
71039;SHT30;58692;43.212;27.908;2024-02-14T10:38:31;10.35;73.37
71039;SHT30;58692;43.212;27.908;2024-02-14T10:41:02;10.49;73.19
71039;SHT30;58692;43.212;27.908;2024-02-14T10:43:28;10.36;73.22
71039;SHT30;58692;43.212;27.908;2024-02-14T10:45:54;10.50;73.01
71039;SHT30;58692;43.212;27.908;2024-02-14T10:48:22;10.43;72.72
71039;SHT30;58692;43.212;27.908;2024-02-14T10:50:53;10.28;73.34
71039;SHT30;58692;43.212;27.908;2024-02-14T10:53:19;10.35;73.34
71039;SHT30;58692;43.212;27.908;2024-02-14T10:55:48;10.23;73.71
71039;SHT30;58692;43.212;27.908;2024-02-14T10:58:18;10.23;73.92
71039;SHT30;58692;43.212;27.908;2024-02-14T11:00:45;10.19;73.51
71039;SHT30;58692;43.212;27.908;2024-02-14T11:03:12;10.11;73.22
71039;SHT30;58692;43.212;27.908;2024-02-14T11:05:48;10.06;73.41
71039;SHT30;58692;43.212;27.908;2024-02-14T11:08:18;9.99;73.39
71039;SHT30;58692;43.212;27.908;2024-02-14T11:10:58;10.06;73.48
71039;SHT30;58692;43.212;27.908;2024-02-14T11:13:44;9.95;73.66
71039;SHT30;58692;43.212;27.908;2024-02-14T11:16:10;10.23;74.52
71039;SHT30;58692;43.212;27.908;2024-02-14T11:18:39;10.18;73.29
71039;SHT30;58692;43.212;27.908;2024-02-14T11:21:16;10.08;72.87
71039;SHT30;58692;43.212;27.908;2024-02-14T11:23:41;9.94;73.25
71039;SHT30;58692;43.212;27.908;2024-02-14T11:26:48;10.01;72.96
71039;SHT30;58692;43.212;27.908;2024-02-14T11:29:17;9.95;73.18
71039;SHT30;58692;43.212;27.908;2024-02-14T11:31:44;9.97;73.10
71039;SHT30;58692;43.212;27.908;2024-02-14T11:34:12;9.81;73.19
71039;SHT30;58692;43.212;27.908;2024-02-14T11:36:39;9.98;72.86
71039;SHT30;58692;43.212;27.908;2024-02-14T11:39:06;9.82;72.98
71039;SHT30;58692;43.212;27.908;2024-02-14T11:41:33;9.92;73.16
71039;SHT30;58692;43.212;27.908;2024-02-14T11:44:03;10.15;72.64
71039;SHT30;58692;43.212;27.908;2024-02-14T11:46:32;10.22;72.03
71039;SHT30;58692;43.212;27.908;2024-02-14T11:48:59;10.16;71.73
71039;SHT30;58692;43.212;27.908;2024-02-14T11:51:29;10.16;71.55
71039;SHT30;58692;43.212;27.908;2024-02-14T11:54:14;10.23;71.71
71039;SHT30;58692;43.212;27.908;2024-02-14T11:56:40;10.31;71.50
71039;SHT30;58692;43.212;27.908;2024-02-14T11:59:07;10.32;71.66
71039;SHT30;58692;43.212;27.908;2024-02-14T12:01:35;10.28;71.95
71039;SHT30;58692;43.212;27.908;2024-02-14T12:04:02;9.95;72.63
71039;SHT30;58692;43.212;27.908;2024-02-14T12:06:30;9.95;72.86
71039;SHT30;58692;43.212;27.908;2024-02-14T12:08:58;10.02;72.52
71039;SHT30;58692;43.212;27.908;2024-02-14T12:11:31;10.11;72.32
71039;SHT30;58692;43.212;27.908;2024-02-14T12:14:01;10.11;72.34
71039;SHT30;58692;43.212;27.908;2024-02-14T12:16:34;10.08;71.81
71039;SHT30;58692;43.212;27.908;2024-02-14T12:19:14;10.03;71.96
71039;SHT30;58692;43.212;27.908;2024-02-14T12:21:41;9.92;72.20
71039;SHT30;58692;43.212;27.908;2024-02-14T12:24:10;9.84;72.40
71039;SHT30;58692;43.212;27.908;2024-02-14T12:26:37;9.90;72.47
71039;SHT30;58692;43.212;27.908;2024-02-14T12:29:03;9.97;72.34
71039;SHT30;58692;43.212;27.908;2024-02-14T12:31:30;9.87;72.67
71039;SHT30;58692;43.212;27.908;2024-02-14T12:33:58;9.82;72.92
71039;SHT30;58692;43.212;27.908;2024-02-14T12:36:28;9.82;72.94
71039;SHT30;58692;43.212;27.908;2024-02-14T12:38:55;9.57;73.35
71039;SHT30;58692;43.212;27.908;2024-02-14T12:41:21;9.70;73.30
71039;SHT30;58692;43.212;27.908;2024-02-14T12:43:47;9.82;72.93
71039;SHT30;58692;43.212;27.908;2024-02-14T12:46:13;9.80;72.75
71039;SHT30;58692;43.212;27.908;2024-02-14T12:48:39;9.90;72.73
71039;SHT30;58692;43.212;27.908;2024-02-14T12:51:05;9.68;72.71
71039;SHT30;58692;43.212;27.908;2024-02-14T12:53:31;9.70;73.36
71039;SHT30;58692;43.212;27.908;2024-02-14T12:55:57;9.68;73.46
71039;SHT30;58692;43.212;27.908;2024-02-14T13:01:53;9.57;73.99
71039;SHT30;58692;43.212;27.908;2024-02-14T13:04:25;9.58;74.37
71039;SHT30;58692;43.212;27.908;2024-02-14T13:06:58;9.58;73.81
71039;SHT30;58692;43.212;27.908;2024-02-14T13:09:46;9.51;73.64
71039;SHT30;58692;43.212;27.908;2024-02-14T13:12:38;9.52;73.94
71039;SHT30;58692;43.212;27.908;2024-02-14T13:15:35;9.51;74.09
71039;SHT30;58692;43.212;27.908;2024-02-14T13:18:19;9.54;74.00
71039;SHT30;58692;43.212;27.908;2024-02-14T13:20:47;9.40;74.58
71039;SHT30;58692;43.212;27.908;2024-02-14T13:23:21;9.26;74.55
71039;SHT30;58692;43.212;27.908;2024-02-14T13:25:53;9.37;74.42
71039;SHT30;58692;43.212;27.908;2024-02-14T13:28:36;9.15;74.64
71039;SHT30;58692;43.212;27.908;2024-02-14T13:31:05;9.22;74.74
71039;SHT30;58692;43.212;27.908;2024-02-14T13:33:50;9.33;74.59
71039;SHT30;58692;43.212;27.908;2024-02-14T13:36:16;9.29;74.53
71039;SHT30;58692;43.212;27.908;2024-02-14T13:38:42;9.37;74.52
71039;SHT30;58692;43.212;27.908;2024-02-14T13:41:11;9.31;74.21
71039;SHT30;58692;43.212;27.908;2024-02-14T13:43:38;9.03;74.33
71039;SHT30;58692;43.212;27.908;2024-02-14T13:46:09;9.03;74.73
71039;SHT30;58692;43.212;27.908;2024-02-14T13:48:35;9.06;74.85
71039;SHT30;58692;43.212;27.908;2024-02-14T13:51:01;9.13;74.66
71039;SHT30;58692;43.212;27.908;2024-02-14T13:53:28;9.15;74.21
71039;SHT30;58692;43.212;27.908;2024-02-14T13:55:54;9.19;73.93
71039;SHT30;58692;43.212;27.908;2024-02-14T13:58:56;9.24;73.86
71039;SHT30;58692;43.212;27.908;2024-02-14T14:01:31;9.24;73.33
71039;SHT30;58692;43.212;27.908;2024-02-14T14:04:02;9.27;73.48
71039;SHT30;58692;43.212;27.908;2024-02-14T14:06:29;9.24;73.48
71039;SHT30;58692;43.212;27.908;2024-02-14T14:08:55;9.31;73.35
71039;SHT30;58692;43.212;27.908;2024-02-14T14:11:20;9.40;73.27
71039;SHT30;58692;43.212;27.908;2024-02-14T14:13:46;9.29;73.68
71039;SHT30;58692;43.212;27.908;2024-02-14T14:16:12;9.33;73.40
71039;SHT30;58692;43.212;27.908;2024-02-14T14:18:37;9.40;73.24
71039;SHT30;58692;43.212;27.908;2024-02-14T14:21:04;9.19;73.50
71039;SHT30;58692;43.212;27.908;2024-02-14T14:23:30;9.29;73.57
71039;SHT30;58692;43.212;27.908;2024-02-14T14:25:58;9.34;73.44
71039;SHT30;58692;43.212;27.908;2024-02-14T14:28:24;9.31;73.46
71039;SHT30;58692;43.212;27.908;2024-02-14T14:30:51;9.17;73.51
71039;SHT30;58692;43.212;27.908;2024-02-14T14:33:19;9.05;73.89
71039;SHT30;58692;43.212;27.908;2024-02-14T14:35:48;9.13;73.71
71039;SHT30;58692;43.212;27.908;2024-02-14T14:38:20;9.12;73.47
71039;SHT30;58692;43.212;27.908;2024-02-14T14:40:56;9.00;73.90
71039;SHT30;58692;43.212;27.908;2024-02-14T14:43:28;8.97;74.03
71039;SHT30;58692;43.212;27.908;2024-02-14T14:45:54;8.97;73.80
71039;SHT30;58692;43.212;27.908;2024-02-14T14:48:22;8.95;73.69
71039;SHT30;58692;43.212;27.908;2024-02-14T14:50:48;8.99;73.75
71039;SHT30;58692;43.212;27.908;2024-02-14T14:53:20;9.05;73.43
71039;SHT30;58692;43.212;27.908;2024-02-14T14:55:55;8.96;73.67
71039;SHT30;58692;43.212;27.908;2024-02-14T14:58:22;9.05;73.14
71039;SHT30;58692;43.212;27.908;2024-02-14T15:00:53;9.07;72.95
71039;SHT30;58692;43.212;27.908;2024-02-14T15:03:20;9.03;72.92
71039;SHT30;58692;43.212;27.908;2024-02-14T15:05:46;9.16;72.66
71039;SHT30;58692;43.212;27.908;2024-02-14T15:08:13;9.15;72.84
71039;SHT30;58692;43.212;27.908;2024-02-14T15:10:40;9.24;72.22
71039;SHT30;58692;43.212;27.908;2024-02-14T15:13:08;9.09;72.06
71039;SHT30;58692;43.212;27.908;2024-02-14T15:15:35;9.03;72.54
71039;SHT30;58692;43.212;27.908;2024-02-14T15:18:01;9.07;72.50
71039;SHT30;58692;43.212;27.908;2024-02-14T15:20:27;8.99;72.50
71039;SHT30;58692;43.212;27.908;2024-02-14T15:22:53;9.05;72.54
71039;SHT30;58692;43.212;27.908;2024-02-14T15:25:18;9.17;72.42
71039;SHT30;58692;43.212;27.908;2024-02-14T15:27:45;9.12;72.09
71039;SHT30;58692;43.212;27.908;2024-02-14T15:30:27;9.16;72.21
71039;SHT30;58692;43.212;27.908;2024-02-14T15:33:08;9.16;72.16
71039;SHT30;58692;43.212;27.908;2024-02-14T15:35:52;9.13;72.27